Time;durP1;ratioP1;P1;durP2;ratioP2;P2;SDS_P1;SDS_P2;PMS_P1;PMS_P2;Temp;Humidity;BMP_temperature;BMP_pressure;BME280_temperature;BME280_humidity;BME280_pressure;Samples;Min_cycle;Max_cycle;Signal;HPM_P1;HPM_P2
2021/12/09 00:02:13;;;;;;;18.45;7.80;;;2.30;99.90;;;;;;4982570;28;20046;-82
2021/12/09 00:04:39;;;;;;;12.63;7.47;;;2.30;99.90;;;;;;4998465;28;20080;-82
2021/12/09 00:07:05;;;;;;;14.05;7.43;;;2.20;99.90;;;;;;4998755;28;20046;-82
2021/12/09 00:09:31;;;;;;;14.50;7.50;;;2.40;99.90;;;;;;5002800;28;20044;-82
2021/12/09 00:11:58;;;;;;;14.85;7.80;;;2.40;99.90;;;;;;4985853;28;20409;-82
2021/12/09 00:14:30;;;;;;;17.35;7.75;;;2.00;99.90;;;;;;4985703;28;20046;-82
2021/12/09 00:16:58;;;;;;;15.77;7.50;;;2.10;99.90;;;;;;4985766;28;20034;-82
2021/12/09 00:19:25;;;;;;;17.13;8.15;;;2.00;99.90;;;;;;5001757;28;20409;-82
2021/12/09 00:21:51;;;;;;;16.55;8.32;;;2.70;99.90;;;;;;4968510;28;20148;-82
2021/12/09 00:24:17;;;;;;;16.88;8.07;;;2.90;99.90;;;;;;4985105;28;20077;-82
2021/12/09 00:26:46;;;;;;;18.23;8.45;;;2.00;99.90;;;;;;5000804;28;20128;-82
2021/12/09 00:29:14;;;;;;;15.40;8.15;;;2.00;99.90;;;;;;4968187;28;20046;-82
2021/12/09 00:31:40;;;;;;;15.40;8.57;;;2.10;99.90;;;;;;5000091;28;20128;-82
2021/12/09 00:34:06;;;;;;;19.83;8.70;;;2.10;99.90;;;;;;4983836;28;20077;-82
2021/12/09 00:36:39;;;;;;;19.10;8.88;;;2.90;99.90;;;;;;4999426;28;20041;-82
2021/12/09 00:39:07;;;;;;;19.20;8.55;;;2.20;99.90;;;;;;5000646;28;20559;-82
2021/12/09 00:41:33;;;;;;;16.77;9.52;;;2.10;99.90;;;;;;5016657;28;20045;-82
2021/12/09 00:43:59;;;;;;;20.55;9.75;;;2.10;99.90;;;;;;4999808;28;20041;-82
2021/12/09 00:46:25;;;;;;;18.23;9.15;;;2.10;99.90;;;;;;4983495;28;20104;-82
2021/12/09 00:48:51;;;;;;;19.73;8.98;;;2.00;99.90;;;;;;4999752;28;20274;-82
2021/12/09 00:51:17;;;;;;;15.98;9.35;;;1.90;99.90;;;;;;4999272;28;20133;-82
2021/12/09 00:53:43;;;;;;;18.50;9.90;;;2.00;99.90;;;;;;4999867;28;20034;-82
2021/12/09 00:56:10;;;;;;;18.05;9.90;;;2.00;99.90;;;;;;4982854;28;20038;-82
2021/12/09 00:58:38;;;;;;;18.38;10.18;;;2.00;99.90;;;;;;4982924;28;20049;-82
2021/12/09 01:01:05;;;;;;;19.30;9.82;;;2.00;99.90;;;;;;4999010;28;20444;-82
2021/12/09 01:03:32;;;;;;;18.17;9.90;;;2.00;99.90;;;;;;4983133;28;20049;-82
2021/12/09 01:05:58;;;;;;;17.35;9.98;;;2.00;99.90;;;;;;4998699;28;20080;-82
2021/12/09 01:08:23;;;;;;;16.58;10.20;;;2.00;99.90;;;;;;4998934;28;20048;-82
2021/12/09 01:10:49;;;;;;;19.02;10.23;;;2.00;99.90;;;;;;4998910;28;20053;-82
2021/12/09 01:13:15;;;;;;;17.55;8.90;;;1.90;99.90;;;;;;5015025;28;20501;-82
2021/12/09 01:15:41;;;;;;;18.42;9.63;;;2.10;99.90;;;;;;4982553;28;20044;-82
2021/12/09 01:18:07;;;;;;;19.83;10.07;;;1.90;99.90;;;;;;4998550;28;20049;-82
2021/12/09 01:20:33;;;;;;;17.17;10.18;;;2.00;99.90;;;;;;4997239;28;20568;-82
2021/12/09 01:22:59;;;;;;;20.45;10.43;;;2.50;99.90;;;;;;4998275;28;20053;-82
2021/12/09 01:25:27;;;;;;;16.45;9.57;;;2.20;99.90;;;;;;4982352;28;20393;-82
2021/12/09 01:27:56;;;;;;;16.27;9.80;;;2.50;99.90;;;;;;4981715;28;20046;-82
2021/12/09 01:30:23;;;;;;;17.05;9.70;;;2.10;99.90;;;;;;4998152;28;20053;-82
2021/12/09 01:32:53;;;;;;;17.92;9.80;;;2.20;99.90;;;;;;4998022;28;20460;-82
2021/12/09 01:35:33;;;;;;;19.85;9.85;;;2.20;99.90;;;;;;4980939;28;20045;-82
2021/12/09 01:38:08;;;;;;;18.63;10.48;;;2.20;99.90;;;;;;4981139;28;20040;-82
2021/12/09 01:40:34;;;;;;;17.60;10.50;;;2.30;99.90;;;;;;4978172;28;20042;-82
2021/12/09 01:42:59;;;;;;;17.67;10.88;;;2.10;99.90;;;;;;4978773;28;20393;-82
2021/12/09 01:45:26;;;;;;;19.80;10.85;;;2.00;99.90;;;;;;4962354;28;20108;-82
2021/12/09 01:47:52;;;;;;;20.50;10.60;;;2.00;99.90;;;;;;4962217;28;20050;-82
2021/12/09 01:50:19;;;;;;;20.65;10.75;;;2.10;99.90;;;;;;4977455;28;20038;-82
2021/12/09 01:52:44;;;;;;;18.35;10.15;;;2.00;99.90;;;;;;4984874;28;20081;-82
2021/12/09 01:55:13;;;;;;;16.50;10.18;;;2.00;99.90;;;;;;4997589;28;20073;-82
2021/12/09 01:57:39;;;;;;;17.73;9.38;;;2.20;99.90;;;;;;4981227;28;20061;-82
2021/12/09 02:00:08;;;;;;;16.98;9.13;;;2.20;99.90;;;;;;4997540;28;20553;-82
2021/12/09 02:02:34;;;;;;;17.05;8.75;;;2.30;99.90;;;;;;4997153;28;20042;-82
2021/12/09 02:05:00;;;;;;;16.05;9.27;;;2.30;99.90;;;;;;4996821;28;20144;-82
2021/12/09 02:07:25;;;;;;;18.63;10.00;;;2.20;99.90;;;;;;4981571;28;20153;-82
2021/12/09 02:09:51;;;;;;;17.73;10.57;;;2.20;99.90;;;;;;4981157;28;20049;-82
2021/12/09 02:12:17;;;;;;;19.55;10.82;;;2.10;99.90;;;;;;4965103;28;20068;-82
2021/12/09 02:14:44;;;;;;;18.38;10.70;;;2.10;99.90;;;;;;4980779;28;20049;-82
2021/12/09 02:17:11;;;;;;;20.02;11.25;;;2.10;99.90;;;;;;4981253;28;20436;-82
2021/12/09 02:19:41;;;;;;;18.92;10.52;;;2.00;99.90;;;;;;4964584;28;20034;-82
2021/12/09 02:22:08;;;;;;;20.85;11.50;;;2.80;99.90;;;;;;4980693;28;20045;-82
2021/12/09 02:24:33;;;;;;;21.40;11.88;;;2.00;99.90;;;;;;4980908;28;20550;-82
2021/12/09 02:26:59;;;;;;;20.77;12.77;;;2.00;99.90;;;;;;4980334;28;20045;-82
2021/12/09 02:29:25;;;;;;;19.98;12.25;;;2.40;99.90;;;;;;4996848;28;20045;-82
2021/12/09 02:31:56;;;;;;;20.13;11.10;;;1.90;99.90;;;;;;4980320;28;20049;-82
2021/12/09 02:34:22;;;;;;;20.40;12.45;;;1.80;99.90;;;;;;4981361;28;20050;-82
2021/12/09 02:36:51;;;;;;;21.00;11.43;;;1.70;99.90;;;;;;5012190;28;20108;-82
2021/12/09 02:39:17;;;;;;;20.27;11.73;;;1.70;99.90;;;;;;4996206;28;20038;-82
2021/12/09 02:41:44;;;;;;;21.70;12.10;;;2.40;99.90;;;;;;4991573;28;20637;-82
2021/12/09 02:44:13;;;;;;;19.52;12.02;;;1.80;99.90;;;;;;4996571;28;20139;-82
2021/12/09 02:46:39;;;;;;;22.40;12.63;;;1.80;99.90;;;;;;4979993;28;20033;-82
2021/12/09 02:49:18;;;;;;;22.42;12.60;;;1.90;99.90;;;;;;4996456;28;20525;-82
2021/12/09 02:51:45;;;;;;;18.65;11.68;;;1.90;99.90;;;;;;4980066;28;20046;-82
2021/12/09 02:54:15;;;;;;;25.05;11.68;;;2.00;99.90;;;;;;4996340;28;20046;-82
2021/12/09 02:56:45;;;;;;;20.67;11.57;;;2.00;99.90;;;;;;4979482;28;20065;-82
2021/12/09 02:59:11;;;;;;;20.48;12.00;;;2.10;99.90;;;;;;4996375;28;20107;-82
2021/12/09 03:01:47;;;;;;;24.52;12.10;;;2.20;99.90;;;;;;4996154;28;20390;-82
2021/12/09 03:04:13;;;;;;;19.15;11.98;;;2.30;99.90;;;;;;4980311;28;20362;-82
2021/12/09 03:06:41;;;;;;;17.77;11.43;;;2.20;99.90;;;;;;4963561;28;20042;-82
2021/12/09 03:09:14;;;;;;;22.85;12.30;;;2.10;99.90;;;;;;4995937;28;20054;-82
2021/12/09 03:11:41;;;;;;;21.75;11.70;;;2.10;99.90;;;;;;4979212;28;20045;-82
2021/12/09 03:14:07;;;;;;;21.45;11.75;;;2.20;99.90;;;;;;4979938;28;20041;-82
2021/12/09 03:16:34;;;;;;;21.05;12.02;;;2.00;99.90;;;;;;4995764;28;20099;-82
2021/12/09 03:19:03;;;;;;;24.15;12.93;;;2.10;99.90;;;;;;4963788;28;20034;-82
2021/12/09 03:21:38;;;;;;;19.80;12.25;;;2.00;99.90;;;;;;4995700;28;20041;-82
2021/12/09 03:24:09;;;;;;;20.63;12.55;;;1.90;99.90;;;;;;4979890;28;20408;-82
2021/12/09 03:26:39;;;;;;;20.02;12.02;;;2.00;99.90;;;;;;4995010;28;20041;-82
2021/12/09 03:29:08;;;;;;;20.88;12.68;;;2.00;99.90;;;;;;4977821;28;20046;-82
2021/12/09 03:31:37;;;;;;;21.35;13.38;;;2.20;99.90;;;;;;4976195;28;20035;-82
2021/12/09 03:34:02;;;;;;;25.27;12.65;;;2.20;99.90;;;;;;4975881;28;20176;-82
2021/12/09 03:36:28;;;;;;;23.95;13.38;;;1.90;99.90;;;;;;4993089;28;20125;-82
2021/12/09 03:39:05;;;;;;;22.23;12.60;;;2.00;99.90;;;;;;4995871;28;20044;-82
2021/12/09 03:41:31;;;;;;;20.45;12.70;;;1.90;99.90;;;;;;4995512;28;20584;-82
2021/12/09 03:43:57;;;;;;;25.23;12.55;;;1.90;99.90;;;;;;4999356;28;20537;-82
2021/12/09 03:46:23;;;;;;;23.15;13.30;;;1.90;99.90;;;;;;4999509;28;20123;-82
2021/12/09 03:48:49;;;;;;;21.88;14.25;;;1.90;99.90;;;;;;4999441;28;20045;-82
2021/12/09 03:51:15;;;;;;;24.17;13.20;;;1.90;99.90;;;;;;5015691;28;20045;-82
2021/12/09 03:53:40;;;;;;;20.48;12.93;;;1.80;99.90;;;;;;5015860;28;20073;-82
2021/12/09 03:56:06;;;;;;;25.92;13.68;;;1.70;99.90;;;;;;4982351;28;20046;-82
2021/12/09 03:58:32;;;;;;;24.90;14.90;;;1.70;99.90;;;;;;4982810;28;20104;-82
2021/12/09 04:00:57;;;;;;;23.50;14.15;;;1.60;99.90;;;;;;4998883;28;20126;-82
2021/12/09 04:03:24;;;;;;;22.20;14.48;;;1.60;99.90;;;;;;5015815;28;20121;-82
2021/12/09 04:05:51;;;;;;;21.77;14.25;;;1.50;99.90;;;;;;5015221;28;20125;-82
2021/12/09 04:08:17;;;;;;;23.58;14.07;;;1.60;99.90;;;;;;4998797;28;20042;-82
2021/12/09 04:10:44;;;;;;;23.45;14.60;;;1.60;99.90;;;;;;4998472;28;20076;-82
2021/12/09 04:13:10;;;;;;;26.20;15.20;;;1.50;99.90;;;;;;4982780;28;20054;-82
2021/12/09 04:15:36;;;;;;;22.88;14.52;;;1.60;99.90;;;;;;4998660;28;20038;-82
2021/12/09 04:18:03;;;;;;;23.70;14.77;;;1.60;99.90;;;;;;4982714;28;20038;-82
2021/12/09 04:20:29;;;;;;;21.35;13.35;;;1.60;99.90;;;;;;4979089;28;20097;-82
2021/12/09 04:22:55;;;;;;;21.27;12.23;;;1.70;99.90;;;;;;4963494;28;20517;-82
2021/12/09 04:25:27;;;;;;;22.10;13.23;;;1.80;99.90;;;;;;4978822;28;20053;-82
2021/12/09 04:27:55;;;;;;;20.35;12.98;;;2.00;99.90;;;;;;4979337;28;20049;-82
2021/12/09 04:30:22;;;;;;;27.33;13.15;;;1.80;99.90;;;;;;4979054;28;20233;-82
2021/12/09 04:32:52;;;;;;;20.08;12.98;;;1.70;99.90;;;;;;4979291;28;20038;-82
2021/12/09 04:35:19;;;;;;;23.73;13.13;;;1.70;99.90;;;;;;4979185;28;20030;-82
2021/12/09 04:37:47;;;;;;;24.05;13.52;;;1.60;99.90;;;;;;4979229;28;20042;-82
2021/12/09 04:40:13;;;;;;;21.38;13.27;;;1.50;99.90;;;;;;4978259;28;20146;-82
2021/12/09 04:42:40;;;;;;;23.95;12.82;;;1.50;99.90;;;;;;4995319;28;20042;-82
2021/12/09 04:45:07;;;;;;;24.42;12.88;;;1.50;99.90;;;;;;4962945;28;20371;-82
2021/12/09 04:47:33;;;;;;;24.15;13.95;;;1.50;99.90;;;;;;4978467;28;20050;-82
2021/12/09 04:49:59;;;;;;;23.75;14.25;;;1.40;99.90;;;;;;4978843;28;20049;-82
2021/12/09 04:52:25;;;;;;;27.58;14.82;;;1.40;99.90;;;;;;4962525;28;20039;-81
2021/12/09 04:54:51;;;;;;;24.77;15.38;;;1.30;99.90;;;;;;4977543;28;20050;-81
2021/12/09 04:57:17;;;;;;;25.55;15.10;;;1.30;99.90;;;;;;4993830;28;20054;-81
2021/12/09 04:59:43;;;;;;;28.98;16.25;;;1.30;99.90;;;;;;4962605;28;20042;-81
2021/12/09 05:02:15;;;;;;;28.17;15.65;;;1.30;99.90;;;;;;4978642;28;20097;-81
2021/12/09 05:04:40;;;;;;;27.75;15.40;;;1.30;99.90;;;;;;4978549;28;20042;-81
2021/12/09 05:07:06;;;;;;;25.90;15.05;;;1.30;99.90;;;;;;4978354;28;20092;-81
2021/12/09 05:09:37;;;;;;;23.33;12.95;;;1.70;99.90;;;;;;4962160;28;20065;-81
2021/12/09 05:12:05;;;;;;;23.33;13.30;;;1.40;99.90;;;;;;4977480;28;20042;-81
2021/12/09 05:14:31;;;;;;;25.48;15.25;;;1.40;99.90;;;;;;4978424;28;20136;-81
2021/12/09 05:16:58;;;;;;;22.70;13.98;;;1.40;99.90;;;;;;4978055;28;20042;-81
2021/12/09 05:19:24;;;;;;;24.10;14.60;;;1.30;99.90;;;;;;4978544;28;20482;-81
2021/12/09 05:21:54;;;;;;;25.80;15.02;;;1.30;99.90;;;;;;4978197;28;20034;-81
2021/12/09 05:24:20;;;;;;;26.38;15.85;;;1.20;99.90;;;;;;4978303;28;20065;-81
2021/12/09 05:26:51;;;;;;;27.90;16.77;;;1.20;99.90;;;;;;4977161;28;20042;-81
2021/12/09 05:29:21;;;;;;;28.42;17.95;;;1.10;99.90;;;;;;4978345;28;20514;-81
2021/12/09 05:34:32;;;;;;;30.60;19.02;;;1.00;99.90;;;;;;4977947;28;20133;-81
2021/12/09 05:36:58;;;;;;;33.97;19.88;;;1.00;99.90;;;;;;4977737;28;20498;-81
2021/12/09 05:39:24;;;;;;;30.08;20.08;;;1.10;99.90;;;;;;4977819;28;20045;-81
2021/12/09 05:41:51;;;;;;;34.72;19.70;;;1.00;99.90;;;;;;4977086;28;20480;-82
2021/12/09 05:44:16;;;;;;;34.53;19.17;;;1.00;99.90;;;;;;4964645;28;20049;-82
2021/12/09 05:46:46;;;;;;;30.75;18.10;;;1.20;99.90;;;;;;4977771;28;20417;-81
2021/12/09 05:49:13;;;;;;;33.63;20.00;;;1.10;99.90;;;;;;4961619;28;20042;-81
2021/12/09 05:51:40;;;;;;;32.20;19.27;;;1.10;99.90;;;;;;4977512;28;20053;-83
2021/12/09 05:54:06;;;;;;;35.53;20.42;;;1.20;99.90;;;;;;4977623;28;20074;-83
2021/12/09 05:56:32;;;;;;;33.15;18.85;;;1.30;99.90;;;;;;4976621;28;20167;-83
2021/12/09 05:58:58;;;;;;;34.92;19.65;;;2.10;99.90;;;;;;4994540;28;20497;-82
2021/12/09 06:01:24;;;;;;;35.13;20.70;;;1.20;99.90;;;;;;4996632;28;20049;-83
2021/12/09 06:03:50;;;;;;;35.30;21.02;;;1.20;99.90;;;;;;4980197;28;20049;-81
2021/12/09 06:06:16;;;;;;;32.00;20.08;;;1.20;99.90;;;;;;4993015;28;20045;-84
2021/12/09 06:08:42;;;;;;;34.38;19.75;;;1.40;99.90;;;;;;4980617;28;20046;-84
2021/12/09 06:11:10;;;;;;;34.05;19.70;;;2.00;99.90;;;;;;4963830;28;20099;-84
2021/12/09 06:13:37;;;;;;;33.88;19.20;;;1.30;99.90;;;;;;4996927;28;20084;-84
2021/12/09 06:16:05;;;;;;;32.30;18.55;;;1.20;99.90;;;;;;5009494;28;20446;-85
2021/12/09 06:18:31;;;;;;;32.85;19.98;;;1.30;99.90;;;;;;4981538;28;20496;-84
2021/12/09 06:20:57;;;;;;;33.17;19.25;;;2.00;99.90;;;;;;4964554;28;20034;-84
2021/12/09 06:23:24;;;;;;;30.33;18.00;;;1.40;99.90;;;;;;4975925;28;20489;-84
2021/12/09 06:25:50;;;;;;;29.55;18.77;;;1.90;99.90;;;;;;4985676;28;20448;-84
2021/12/09 06:28:17;;;;;;;30.70;20.25;;;1.40;99.90;;;;;;4995064;28;20124;-83
2021/12/09 06:30:44;;;;;;;33.33;19.73;;;2.10;99.90;;;;;;4994814;28;20049;-82
2021/12/09 06:33:10;;;;;;;30.75;19.50;;;1.30;99.90;;;;;;4995309;28;20049;-82
2021/12/09 06:35:36;;;;;;;31.25;19.48;;;1.30;99.90;;;;;;4978500;28;20038;-81
2021/12/09 06:38:03;;;;;;;30.73;20.33;;;1.20;99.90;;;;;;4995487;28;20069;-81
2021/12/09 06:40:29;;;;;;;34.78;19.27;;;1.50;99.90;;;;;;4989871;28;20520;-81
2021/12/09 06:42:55;;;;;;;35.03;21.58;;;1.20;99.90;;;;;;4996329;28;20041;-81
2021/12/09 06:45:23;;;;;;;33.13;20.48;;;1.20;99.90;;;;;;4995943;28;20049;-81
2021/12/09 06:47:50;;;;;;;32.20;18.85;;;1.30;99.90;;;;;;4996080;28;20448;-81
2021/12/09 06:50:17;;;;;;;35.13;19.08;;;1.90;99.90;;;;;;4979863;28;20046;-81
2021/12/09 06:52:43;;;;;;;33.13;20.48;;;1.30;99.90;;;;;;4979038;28;20049;-81
2021/12/09 06:55:12;;;;;;;31.67;18.70;;;1.30;99.90;;;;;;4979300;28;20042;-81
2021/12/09 06:57:39;;;;;;;35.22;19.98;;;1.20;99.90;;;;;;4992646;28;20473;-81
2021/12/09 07:00:11;;;;;;;36.95;19.65;;;1.20;99.90;;;;;;4975821;28;20034;-81
2021/12/09 07:02:37;;;;;;;;;;;1.20;99.90;;;;;;4973652;28;20081;-81
2021/12/09 07:05:04;;;;;;;27.13;16.30;;;1.30;99.90;;;;;;4973156;28;19926;-81
2021/12/09 07:07:30;;;;;;;28.98;18.00;;;1.30;99.90;;;;;;4957041;28;20038;-81
2021/12/09 07:09:56;;;;;;;32.70;18.25;;;1.40;99.90;;;;;;4989652;28;20054;-81
2021/12/09 07:12:22;;;;;;;27.45;17.60;;;1.80;99.90;;;;;;4988401;28;20038;-81
2021/12/09 07:14:48;;;;;;;30.17;17.60;;;1.60;99.90;;;;;;4973085;28;20384;-81
2021/12/09 07:17:14;;;;;;;31.23;18.50;;;1.40;99.90;;;;;;4972506;28;20129;-81
2021/12/09 07:19:39;;;;;;;32.10;18.92;;;1.40;99.90;;;;;;4989237;28;20039;-81
2021/12/09 07:22:05;;;;;;;32.00;19.05;;;1.80;99.90;;;;;;4973128;28;20402;-81
2021/12/09 07:24:31;;;;;;;33.17;18.80;;;1.30;99.90;;;;;;4941125;28;20114;-81
2021/12/09 07:26:57;;;;;;;29.65;18.50;;;1.40;99.90;;;;;;4972143;28;20050;-81
2021/12/09 07:29:24;;;;;;;27.98;16.70;;;1.40;99.90;;;;;;4973027;28;20039;-81
2021/12/09 07:31:50;;;;;;;33.97;18.85;;;1.40;99.90;;;;;;4971633;28;20126;-81
2021/12/09 07:34:16;;;;;;;29.00;17.20;;;1.40;99.90;;;;;;4973441;28;20507;-81
2021/12/09 07:36:43;;;;;;;31.95;16.95;;;1.40;99.90;;;;;;4985258;28;20080;-81
2021/12/09 07:39:09;;;;;;;28.38;18.17;;;1.70;99.90;;;;;;4990511;28;20109;-80
2021/12/09 07:41:35;;;;;;;34.67;19.08;;;1.40;99.90;;;;;;4974181;28;20129;-80
2021/12/09 07:44:02;;;;;;;35.40;19.23;;;1.40;99.90;;;;;;4991383;28;20077;-80
2021/12/09 07:46:29;;;;;;;30.00;18.67;;;1.40;99.90;;;;;;4975946;28;20039;-80
2021/12/09 07:48:55;;;;;;;34.42;17.83;;;2.00;99.90;;;;;;4976095;28;20150;-80
2021/12/09 07:51:21;;;;;;;32.80;17.33;;;1.40;99.90;;;;;;4992292;28;20367;-80
2021/12/09 07:53:47;;;;;;;33.63;19.15;;;1.40;99.90;;;;;;4991435;28;20125;-80
2021/12/09 07:56:12;;;;;;;33.33;18.75;;;1.70;99.90;;;;;;4974519;28;20478;-80
2021/12/09 07:58:38;;;;;;;28.27;18.73;;;1.30;99.90;;;;;;4963675;28;20058;-80
2021/12/09 08:01:04;;;;;;;31.38;18.77;;;1.30;99.90;;;;;;4953338;29;20051;-80
2021/12/09 08:03:30;;;;;;;31.95;18.65;;;1.20;99.90;;;;;;4953421;29;20039;-80
2021/12/09 08:05:56;;;;;;;32.20;19.05;;;1.20;99.90;;;;;;4953225;29;20039;-80
2021/12/09 08:08:22;;;;;;;32.70;17.73;;;1.20;99.90;;;;;;4953470;29;20043;-80
2021/12/09 08:10:48;;;;;;;29.38;17.15;;;1.20;99.90;;;;;;4952768;29;20488;-80
2021/12/09 08:13:14;;;;;;;30.42;17.40;;;1.20;99.90;;;;;;4953193;29;20087;-80
2021/12/09 08:15:45;;;;;;;29.92;17.73;;;1.30;99.90;;;;;;4952951;29;20130;-81
2021/12/09 08:18:27;;;;;;;22.70;14.10;;;1.30;99.90;;;;;;4953662;29;20511;-81
2021/12/09 08:20:56;;;;;;;31.27;17.48;;;1.30;99.90;;;;;;4953419;29;20501;-81
2021/12/09 08:23:22;;;;;;;31.08;17.02;;;1.30;99.90;;;;;;4953035;29;20047;-81
2021/12/09 08:25:48;;;;;;;34.80;17.42;;;1.40;99.90;;;;;;4952538;29;20130;-81
2021/12/09 08:28:15;;;;;;;31.77;17.15;;;1.40;99.90;;;;;;4954076;28;20179;-81
2021/12/09 08:30:40;;;;;;;26.73;17.90;;;1.50;99.90;;;;;;4956470;29;20050;-81
2021/12/09 08:33:07;;;;;;;34.83;18.88;;;1.60;99.90;;;;;;4956497;29;20055;-81
2021/12/09 08:35:34;;;;;;;27.42;17.17;;;1.60;99.90;;;;;;4956304;29;20039;-81
2021/12/09 08:38:00;;;;;;;28.02;17.13;;;1.70;99.90;;;;;;4956455;29;20065;-81
2021/12/09 08:40:26;;;;;;;27.98;17.27;;;1.80;99.90;;;;;;4955793;29;20153;-81
2021/12/09 08:42:53;;;;;;;29.85;16.92;;;1.90;99.90;;;;;;4956712;29;20126;-81
2021/12/09 08:45:20;;;;;;;25.73;14.50;;;2.00;99.90;;;;;;4956548;29;20491;-81
2021/12/09 08:47:47;;;;;;;24.17;14.93;;;2.50;99.90;;;;;;4968363;28;20043;-81
2021/12/09 08:50:17;;;;;;;25.30;14.73;;;2.50;99.90;;;;;;4975776;28;20050;-81
2021/12/09 08:52:43;;;;;;;27.15;13.98;;;2.20;99.90;;;;;;4975538;28;20126;-81
2021/12/09 08:55:09;;;;;;;22.95;13.32;;;2.30;99.90;;;;;;4974896;28;20081;-81
2021/12/09 08:57:37;;;;;;;26.40;12.07;;;2.30;99.90;;;;;;4967533;28;20414;-81
2021/12/09 09:00:12;;;;;;;19.38;11.60;;;2.40;99.90;;;;;;4994633;28;20062;-81
2021/12/09 09:02:44;;;;;;;21.02;11.68;;;2.40;99.90;;;;;;4979048;28;20517;-81
2021/12/09 09:05:13;;;;;;;21.58;11.60;;;2.40;99.90;;;;;;4994535;28;20043;-81
2021/12/09 09:07:43;;;;;;;19.30;12.30;;;2.40;99.90;;;;;;4994473;28;20046;-81
2021/12/09 09:10:10;;;;;;;18.80;10.75;;;2.50;99.90;;;;;;4994170;28;20034;-81
2021/12/09 09:12:37;;;;;;;20.77;10.95;;;2.50;99.90;;;;;;4994750;28;20042;-81
2021/12/09 09:15:08;;;;;;;20.20;11.02;;;2.60;99.90;;;;;;4994423;28;20038;-81
2021/12/09 09:17:35;;;;;;;17.77;10.63;;;2.60;99.90;;;;;;4995304;28;20038;-81
2021/12/09 09:20:05;;;;;;;20.10;11.23;;;2.60;99.90;;;;;;4994345;28;20189;-81
2021/12/09 09:22:30;;;;;;;21.40;10.98;;;2.70;99.90;;;;;;4994392;28;20038;-81
2021/12/09 09:24:56;;;;;;;20.75;10.77;;;2.70;99.90;;;;;;4994428;28;20049;-81
2021/12/09 09:27:22;;;;;;;20.20;11.00;;;2.80;99.90;;;;;;4993701;28;20117;-81
2021/12/09 09:29:48;;;;;;;21.27;11.10;;;2.80;99.90;;;;;;4994670;28;20482;-81
2021/12/09 09:32:14;;;;;;;19.67;10.68;;;2.80;99.90;;;;;;4994117;28;20046;-81
2021/12/09 09:34:41;;;;;;;19.52;10.02;;;2.90;99.90;;;;;;4994585;28;20552;-81
2021/12/09 09:37:07;;;;;;;16.20;9.63;;;2.90;99.90;;;;;;4992992;28;20042;-81
2021/12/09 09:39:33;;;;;;;19.88;9.98;;;3.00;99.90;;;;;;4993324;28;20050;-81
2021/12/09 09:42:18;;;;;;;17.83;9.77;;;3.00;99.90;;;;;;4992155;28;20077;-83
2021/12/09 09:44:55;;;;;;;16.70;9.48;;;3.00;99.90;;;;;;4991229;28;20043;-83
2021/12/09 09:47:26;;;;;;;18.63;9.27;;;3.10;99.90;;;;;;4993361;28;20113;-83
2021/12/09 09:49:53;;;;;;;19.65;9.13;;;3.20;99.90;;;;;;4993103;28;20054;-83
2021/12/09 09:52:20;;;;;;;20.08;9.32;;;3.20;99.90;;;;;;4973464;28;20521;-84
2021/12/09 09:54:47;;;;;;;18.23;9.45;;;3.20;99.90;;;;;;5002671;28;20541;-84
2021/12/09 09:57:13;;;;;;;18.13;8.88;;;3.30;99.90;;;;;;4980869;28;20306;-81
2021/12/09 09:59:43;;;;;;;13.65;8.13;;;3.30;99.90;;;;;;4967568;28;20085;-81
2021/12/09 10:02:11;;;;;;;19.85;9.18;;;3.40;99.90;;;;;;4992170;28;20046;-81
2021/12/09 10:04:44;;;;;;;17.73;8.88;;;3.40;99.90;;;;;;4992608;28;20545;-81
2021/12/09 10:07:15;;;;;;;16.08;8.20;;;3.50;99.90;;;;;;4968576;28;20413;-82
2021/12/09 10:09:42;;;;;;;16.95;8.68;;;3.50;99.90;;;;;;4989443;28;20046;-82
2021/12/09 10:12:08;;;;;;;17.98;8.45;;;3.60;99.90;;;;;;4991686;28;20046;-82
2021/12/09 10:14:36;;;;;;;13.48;7.57;;;3.60;99.90;;;;;;4992080;28;20046;-82
2021/12/09 10:17:11;;;;;;;14.77;7.93;;;3.70;99.90;;;;;;4992388;28;20525;-82
2021/12/09 10:19:52;;;;;;;15.77;8.05;;;3.70;99.90;;;;;;5005392;28;20046;-82
2021/12/09 10:22:39;;;;;;;13.68;7.03;;;3.70;99.90;;;;;;4976077;28;20050;-82
2021/12/09 10:25:21;;;;;;;14.77;7.13;;;3.80;99.90;;;;;;4986761;28;20034;-82
2021/12/09 10:27:58;;;;;;;17.13;7.45;;;3.80;99.90;;;;;;4992170;28;20050;-82
2021/12/09 10:30:24;;;;;;;13.85;7.50;;;3.90;99.90;;;;;;4992204;28;20425;-82
2021/12/09 10:33:00;;;;;;;16.40;7.03;;;3.90;99.90;;;;;;4990854;28;20037;-82
2021/12/09 10:35:26;;;;;;;15.73;7.40;;;3.90;99.90;;;;;;4990162;28;20513;-82
2021/12/09 10:37:52;;;;;;;17.63;7.53;;;3.90;99.90;;;;;;4991636;28;20084;-82
2021/12/09 10:40:21;;;;;;;16.52;7.43;;;3.90;99.90;;;;;;5005098;28;20034;-82
2021/12/09 10:42:55;;;;;;;15.50;7.65;;;3.90;99.90;;;;;;4991322;28;20515;-82
2021/12/09 10:45:39;;;;;;;16.60;7.57;;;3.90;99.90;;;;;;4989450;28;20081;-82
2021/12/09 10:53:35;;;;;;;17.20;7.57;;;3.80;99.90;;;;;;5005486;28;20041;-82
2021/12/09 10:56:09;;;;;;;17.73;7.93;;;3.70;99.90;;;;;;4990221;28;20038;-82
2021/12/09 10:58:39;;;;;;;15.82;7.53;;;3.70;99.90;;;;;;4990351;28;20120;-82
2021/12/09 11:01:18;;;;;;;15.48;8.07;;;3.70;99.90;;;;;;4990773;28;20054;-82
2021/12/09 11:03:50;;;;;;;15.48;7.75;;;3.70;99.90;;;;;;4989275;28;20042;-82
2021/12/09 11:06:19;;;;;;;18.92;8.98;;;3.60;99.90;;;;;;4992081;28;20046;-82
2021/12/09 11:08:50;;;;;;;17.25;8.18;;;3.60;99.90;;;;;;5005072;28;20045;-82
2021/12/09 11:11:33;;;;;;;14.48;8.80;;;3.60;99.90;;;;;;4974031;28;20038;-82
2021/12/09 11:14:13;;;;;;;19.75;10.27;;;3.60;99.90;;;;;;4988791;28;20041;-82
2021/12/09 11:16:42;;;;;;;17.65;9.38;;;3.60;99.90;;;;;;5006108;28;20111;-82
2021/12/09 11:22:03;;;;;;;18.42;10.00;;;3.60;99.90;;;;;;5004468;28;20050;-82
2021/12/09 11:24:36;;;;;;;22.48;10.82;;;3.60;99.90;;;;;;5003392;28;20038;-82
2021/12/09 11:27:04;;;;;;;20.83;12.82;;;3.60;99.90;;;;;;4993275;28;20520;-82
2021/12/09 11:29:46;;;;;;;24.73;11.65;;;3.60;99.90;;;;;;4976852;28;20101;-82
2021/12/09 11:32:29;;;;;;;21.77;11.20;;;3.60;99.90;;;;;;4993029;28;20073;-82
2021/12/09 11:35:27;;;;;;;22.52;11.10;;;3.70;99.90;;;;;;4973906;28;20456;-82
2021/12/09 11:38:07;;;;;;;19.83;11.38;;;3.70;99.90;;;;;;5004914;28;20352;-83
2021/12/09 11:40:44;;;;;;;19.67;11.63;;;3.80;99.90;;;;;;4972645;28;20034;-83
2021/12/09 11:43:18;;;;;;;19.02;11.43;;;3.80;99.90;;;;;;4978908;28;20054;-83
2021/12/09 11:45:47;;;;;;;22.40;11.40;;;3.90;99.90;;;;;;4977145;28;20045;-83
2021/12/09 11:48:14;;;;;;;18.90;10.98;;;3.80;99.90;;;;;;4974202;28;20038;-83
2021/12/09 11:50:43;;;;;;;21.10;11.73;;;3.80;99.90;;;;;;4996661;28;20982;-83
2021/12/09 11:53:12;;;;;;;20.30;11.73;;;3.80;99.90;;;;;;4990771;28;20402;-83
2021/12/09 11:55:44;;;;;;;20.05;12.05;;;3.80;99.90;;;;;;4993163;28;20089;-83
2021/12/09 12:12:19;;;;;;;21.55;12.70;;;3.70;99.90;;;;;;4979797;28;20135;-82
2021/12/09 12:14:48;;;;;;;18.23;11.75;;;3.70;99.90;;;;;;4961241;28;20042;-82
2021/12/09 12:17:28;;;;;;;20.05;12.40;;;3.70;99.90;;;;;;4972439;28;20039;-82
2021/12/09 12:22:51;;;;;;;20.98;13.00;;;3.70;99.90;;;;;;4974972;28;20442;-83
2021/12/09 12:32:23;;;;;;;20.77;12.23;;;3.70;99.90;;;;;;4933366;29;20054;-83
2021/12/09 12:38:09;;;;;;;22.58;12.52;;;3.80;99.90;;;;;;4956996;28;20491;-83
2021/12/09 12:40:43;;;;;;;18.42;11.20;;;3.70;99.90;;;;;;4956773;29;20043;-83
2021/12/09 12:43:22;;;;;;;20.48;12.77;;;3.80;99.90;;;;;;4957361;29;20133;-82
2021/12/09 12:48:36;;;;;;;20.00;12.63;;;3.80;99.90;;;;;;4956689;29;20495;-82
2021/12/09 12:51:09;;;;;;;20.88;12.25;;;3.80;99.90;;;;;;4953683;29;20054;-82
2021/12/09 12:53:44;;;;;;;22.40;12.25;;;3.80;99.90;;;;;;4956628;29;20554;-82
2021/12/09 12:56:10;;;;;;;20.70;12.93;;;3.80;99.90;;;;;;4957643;28;20039;-82
2021/12/09 12:58:36;;;;;;;21.20;12.55;;;3.80;99.90;;;;;;4972146;28;20056;-82
2021/12/09 13:01:18;;;;;;;21.00;12.77;;;3.80;99.90;;;;;;4939682;29;20059;-82
2021/12/09 13:03:51;;;;;;;;;;;3.80;99.90;;;;;;4956312;29;20546;-82
2021/12/09 13:06:38;;;;;;;;;;;3.80;99.90;;;;;;4930083;29;19918;-82
2021/12/09 13:09:48;;;;;;;21.90;12.77;;;3.80;99.90;;;;;;4955947;29;19923;-82
2021/12/09 13:12:40;;;;;;;20.70;12.55;;;3.80;99.90;;;;;;4949605;29;20055;-82
2021/12/09 13:15:24;;;;;;;27.02;13.85;;;3.80;99.90;;;;;;4955646;28;20463;-82
2021/12/09 13:18:01;;;;;;;25.42;14.32;;;3.80;99.90;;;;;;4957546;29;20124;-82
2021/12/09 13:20:40;;;;;;;24.23;14.45;;;3.80;99.90;;;;;;4941392;29;20043;-82
2021/12/09 13:23:21;;;;;;;24.58;14.45;;;3.80;99.90;;;;;;4938778;29;20051;-82
2021/12/09 13:26:29;;;;;;;26.25;15.02;;;3.80;99.90;;;;;;4950548;29;20067;-82
2021/12/09 13:29:20;;;;;;;27.20;15.77;;;3.80;99.90;;;;;;4946728;29;20054;-82
2021/12/09 13:31:57;;;;;;;25.98;15.68;;;3.80;99.90;;;;;;4956333;29;20039;-82